Time;durP1;ratioP1;P1;durP2;ratioP2;P2;SDS_P1;SDS_P2;PMS_P1;PMS_P2;Temp;Humidity;BMP_temperature;BMP_pressure;BME280_temperature;BME280_humidity;BME280_pressure;Samples;Min_cycle;Max_cycle;Signal;HPM_P1;HPM_P2
2021/09/08 00:00:14;;;;;;;3.40;2.93;;;18.40;99.90;;;;;;5013509;28;20210;-75
2021/09/08 00:02:39;;;;;;;1.70;1.57;;;18.40;99.90;;;;;;5013774;28;20164;-75
2021/09/08 00:05:09;;;;;;;1.47;0.80;;;18.30;99.90;;;;;;5015137;28;20963;-75
2021/09/08 00:07:35;;;;;;;1.47;1.10;;;18.30;99.90;;;;;;5014918;28;20259;-75
2021/09/08 00:10:02;;;;;;;3.37;1.17;;;18.30;99.90;;;;;;5013145;28;20513;-75
2021/09/08 00:12:27;;;;;;;4.10;1.80;;;18.30;99.90;;;;;;5014783;28;20458;-74
2021/09/08 00:14:53;;;;;;;1.80;1.40;;;18.30;99.90;;;;;;5014404;28;20405;-75
2021/09/08 00:17:18;;;;;;;4.87;1.93;;;18.30;99.90;;;;;;5014523;28;20172;-75
2021/09/08 00:19:44;;;;;;;0.90;0.60;;;18.30;99.90;;;;;;5012673;28;20222;-75
2021/09/08 00:22:10;;;;;;;1.00;0.87;;;18.30;99.90;;;;;;5014739;28;20172;-75
2021/09/08 00:24:35;;;;;;;2.57;2.27;;;18.30;99.90;;;;;;5014822;28;20196;-75
2021/09/08 00:27:05;;;;;;;5.53;2.33;;;18.30;99.90;;;;;;5014275;28;20265;-75
2021/09/08 00:29:32;;;;;;;1.70;1.60;;;18.30;99.90;;;;;;5014632;28;20195;-75
2021/09/08 00:31:58;;;;;;;2.00;1.90;;;18.20;99.90;;;;;;5013428;28;20422;-75
2021/09/08 00:34:23;;;;;;;0.90;0.80;;;18.20;99.90;;;;;;5014383;28;20889;-75
2021/09/08 00:36:49;;;;;;;1.47;1.37;;;18.10;99.90;;;;;;5013713;28;20584;-75
2021/09/08 00:39:14;;;;;;;3.03;1.00;;;18.10;99.90;;;;;;5014217;28;20199;-75
2021/09/08 00:41:40;;;;;;;1.27;1.17;;;18.10;99.90;;;;;;5014285;28;20172;-75
2021/09/08 00:44:10;;;;;;;2.37;1.40;;;18.00;99.90;;;;;;5013968;28;20168;-75
2021/09/08 00:46:38;;;;;;;1.73;1.07;;;18.00;99.90;;;;;;5013919;28;20172;-75
2021/09/08 00:49:04;;;;;;;2.23;1.33;;;18.00;99.90;;;;;;5012724;28;20459;-75
2021/09/08 00:51:30;;;;;;;3.40;0.60;;;18.00;99.90;;;;;;5013948;28;20422;-75
2021/09/08 00:53:57;;;;;;;0.90;0.80;;;17.90;99.90;;;;;;5014049;28;20255;-75
2021/09/08 00:56:24;;;;;;;3.93;1.00;;;17.90;99.90;;;;;;5013665;28;20468;-75
2021/09/08 00:58:49;;;;;;;4.40;1.90;;;17.90;99.90;;;;;;5013674;28;20435;-75
2021/09/08 01:01:15;;;;;;;1.40;1.30;;;17.90;99.90;;;;;;5012617;28;20768;-75
2021/09/08 01:03:41;;;;;;;4.67;3.90;;;17.90;99.90;;;;;;5013814;28;20168;-75
2021/09/08 01:06:06;;;;;;;1.33;1.23;;;17.90;99.90;;;;;;5013542;28;20408;-75
2021/09/08 01:08:32;;;;;;;4.13;1.67;;;17.80;99.90;;;;;;5013459;28;20673;-75
2021/09/08 01:10:58;;;;;;;2.50;0.80;;;17.80;99.90;;;;;;5012389;28;20176;-75
2021/09/08 01:13:23;;;;;;;2.30;1.47;;;17.80;99.90;;;;;;5013632;28;20191;-75
2021/09/08 01:16:01;;;;;;;1.97;1.70;;;17.80;99.90;;;;;;5012023;28;20202;-75
2021/09/08 01:18:28;;;;;;;1.40;1.30;;;17.80;99.90;;;;;;5012733;28;20551;-75
2021/09/08 01:20:54;;;;;;;1.60;1.50;;;17.80;99.90;;;;;;5011902;28;20441;-75
2021/09/08 01:23:20;;;;;;;3.67;2.47;;;17.70;99.90;;;;;;5013357;28;20403;-75
2021/09/08 01:25:45;;;;;;;1.97;1.37;;;17.70;99.90;;;;;;5011955;28;20234;-75
2021/09/08 01:28:11;;;;;;;1.30;1.00;;;17.70;99.90;;;;;;5012198;28;20415;-75
2021/09/08 01:30:40;;;;;;;7.73;1.33;;;17.70;99.90;;;;;;5013051;28;20643;-75
2021/09/08 01:33:10;;;;;;;3.23;2.97;;;17.60;99.90;;;;;;5013348;28;20166;-75
2021/09/08 01:35:36;;;;;;;2.47;2.37;;;17.60;99.90;;;;;;5013056;28;20851;-75
2021/09/08 01:38:02;;;;;;;1.53;1.00;;;17.50;99.90;;;;;;5013394;28;20399;-74
2021/09/08 01:40:27;;;;;;;2.80;2.60;;;17.60;99.90;;;;;;5011940;28;20291;-75
2021/09/08 01:42:53;;;;;;;1.67;1.13;;;17.50;99.90;;;;;;5011595;28;20454;-74
2021/09/08 01:45:18;;;;;;;5.17;2.53;;;17.50;99.90;;;;;;5012671;28;20212;-74
2021/09/08 01:47:45;;;;;;;2.70;2.60;;;17.40;99.90;;;;;;5013157;28;20198;-75
2021/09/08 01:50:11;;;;;;;2.47;2.07;;;17.40;99.90;;;;;;5011670;28;20710;-75
2021/09/08 01:52:38;;;;;;;1.77;1.67;;;17.30;99.90;;;;;;5011815;28;20419;-75
2021/09/08 01:55:05;;;;;;;1.17;1.07;;;17.20;99.90;;;;;;5011559;28;20509;-74
2021/09/08 01:57:31;;;;;;;2.60;1.50;;;17.20;99.90;;;;;;5012711;28;20411;-75
2021/09/08 01:59:56;;;;;;;2.23;1.17;;;17.10;99.90;;;;;;5011859;28;20996;-74
2021/09/08 02:02:22;;;;;;;0.83;0.67;;;17.10;99.90;;;;;;5012783;28;20209;-74
2021/09/08 02:04:47;;;;;;;2.67;2.07;;;17.10;99.90;;;;;;5012650;28;20207;-75
2021/09/08 02:07:13;;;;;;;1.50;1.40;;;17.10;99.90;;;;;;5011248;28;20183;-75
2021/09/08 02:09:38;;;;;;;0.90;0.70;;;17.10;99.90;;;;;;5012557;28;20208;-75
2021/09/08 02:12:04;;;;;;;1.80;1.20;;;17.10;99.90;;;;;;5011952;28;20831;-74
2021/09/08 02:14:30;;;;;;;2.03;1.60;;;17.00;99.90;;;;;;5012690;28;20193;-75
2021/09/08 02:16:55;;;;;;;9.03;1.77;;;17.00;99.90;;;;;;5012235;28;20219;-75
2021/09/08 02:19:21;;;;;;;1.93;1.00;;;17.00;99.90;;;;;;5012406;28;20202;-75
2021/09/08 02:21:46;;;;;;;1.30;0.90;;;17.10;99.90;;;;;;5012493;28;20184;-75
2021/09/08 02:24:12;;;;;;;5.70;1.37;;;17.00;99.90;;;;;;5011484;28;20184;-75
2021/09/08 02:26:38;;;;;;;1.30;1.20;;;17.00;99.90;;;;;;5012744;28;20180;-75
2021/09/08 02:29:03;;;;;;;1.10;1.00;;;17.00;99.90;;;;;;5012608;28;20289;-74
2021/09/08 02:31:29;;;;;;;0.70;0.60;;;17.00;99.90;;;;;;5012812;28;20207;-75
2021/09/08 02:33:55;;;;;;;1.17;1.07;;;17.00;99.90;;;;;;5012648;28;20176;-75
2021/09/08 02:36:23;;;;;;;1.93;1.70;;;17.00;99.90;;;;;;5011248;28;20630;-74
2021/09/08 02:38:48;;;;;;;1.07;0.97;;;17.00;99.90;;;;;;5012307;28;20418;-75
2021/09/08 02:41:14;;;;;;;7.27;1.87;;;17.00;99.90;;;;;;5012629;28;20415;-75
2021/09/08 02:43:40;;;;;;;1.20;1.10;;;16.90;99.90;;;;;;5013675;28;20172;-75
2021/09/08 02:46:06;;;;;;;1.00;0.70;;;17.00;99.90;;;;;;5015830;28;20165;-75
2021/09/08 02:48:33;;;;;;;0.90;0.80;;;17.00;99.90;;;;;;5015911;28;20173;-74
2021/09/08 02:50:59;;;;;;;2.93;1.07;;;17.00;99.90;;;;;;5016141;28;20839;-75
2021/09/08 02:53:25;;;;;;;1.30;1.20;;;16.90;99.90;;;;;;5015003;28;20450;-75
2021/09/08 02:55:51;;;;;;;1.30;1.20;;;16.90;99.90;;;;;;5015687;28;20443;-75
2021/09/08 02:58:16;;;;;;;0.83;0.83;;;16.90;99.90;;;;;;5015899;28;20227;-75
2021/09/08 03:00:42;;;;;;;1.90;1.33;;;16.90;99.90;;;;;;5014397;28;20232;-75
2021/09/08 03:03:09;;;;;;;2.20;1.00;;;16.90;99.90;;;;;;5015693;28;20204;-75
2021/09/08 03:05:34;;;;;;;3.33;3.13;;;16.90;99.90;;;;;;5015536;28;20434;-74
2021/09/08 03:08:00;;;;;;;2.50;1.00;;;16.90;99.90;;;;;;5015966;28;20543;-75
2021/09/08 03:10:26;;;;;;;1.17;1.07;;;16.90;99.90;;;;;;5015456;28;20886;-75
2021/09/08 03:12:52;;;;;;;1.43;1.33;;;16.90;99.90;;;;;;5015688;28;20665;-74
2021/09/08 03:15:17;;;;;;;1.30;1.20;;;16.90;99.90;;;;;;5013833;28;20416;-75
2021/09/08 03:17:43;;;;;;;2.17;1.60;;;16.90;99.90;;;;;;5014029;28;20233;-75
2021/09/08 03:20:09;;;;;;;1.90;1.80;;;16.90;99.90;;;;;;5015117;28;20199;-74
2021/09/08 03:22:35;;;;;;;2.03;1.23;;;16.90;99.90;;;;;;5015796;28;20172;-75
2021/09/08 03:25:00;;;;;;;1.70;0.93;;;16.90;99.90;;;;;;5015105;28;20920;-75
2021/09/08 03:27:26;;;;;;;1.80;1.70;;;16.80;99.90;;;;;;5014107;28;20176;-74
2021/09/08 03:29:51;;;;;;;3.03;2.77;;;16.90;99.90;;;;;;5014936;28;20208;-74
2021/09/08 03:32:17;;;;;;;2.20;1.57;;;16.80;99.90;;;;;;5015353;28;20183;-74
2021/09/08 03:34:43;;;;;;;1.83;1.73;;;16.90;99.90;;;;;;5013765;28;20179;-75
2021/09/08 03:37:08;;;;;;;1.13;1.03;;;16.80;99.90;;;;;;5013841;28;20176;-75
2021/09/08 03:39:34;;;;;;;1.43;0.90;;;16.80;99.90;;;;;;5014871;28;20199;-75
2021/09/08 03:42:00;;;;;;;2.43;1.93;;;16.70;99.90;;;;;;5014643;28;20422;-75
2021/09/08 03:44:25;;;;;;;2.63;1.80;;;16.70;99.90;;;;;;5013880;28;20180;-75
2021/09/08 03:46:51;;;;;;;2.30;1.23;;;16.70;99.90;;;;;;5014539;28;20179;-75
2021/09/08 03:49:16;;;;;;;1.20;1.00;;;16.70;99.90;;;;;;5014642;28;20713;-75
2021/09/08 03:51:42;;;;;;;1.03;0.93;;;16.70;99.90;;;;;;5014516;28;20255;-75
2021/09/08 03:54:07;;;;;;;1.10;1.00;;;16.60;99.90;;;;;;5014358;28;20175;-74
2021/09/08 03:56:33;;;;;;;3.00;1.87;;;16.60;99.90;;;;;;5013571;28;20677;-74
2021/09/08 03:58:58;;;;;;;1.20;1.10;;;16.70;99.90;;;;;;5014659;28;20191;-75
2021/09/08 04:01:24;;;;;;;1.63;1.47;;;16.60;99.90;;;;;;5014676;28;20231;-75
2021/09/08 04:03:49;;;;;;;1.33;1.23;;;16.50;99.90;;;;;;5014376;28;20717;-74
2021/09/08 04:06:17;;;;;;;1.37;1.27;;;16.50;99.90;;;;;;5014172;28;20523;-75
2021/09/08 04:08:43;;;;;;;2.17;1.97;;;16.40;99.90;;;;;;5014158;28;20168;-74
2021/09/08 04:11:08;;;;;;;1.53;1.10;;;16.40;99.90;;;;;;5015000;28;20407;-74
2021/09/08 04:13:36;;;;;;;1.10;0.87;;;16.40;99.90;;;;;;5013007;28;20311;-74
2021/09/08 04:16:02;;;;;;;1.53;1.27;;;16.30;99.90;;;;;;5012603;28;20778;-75
2021/09/08 04:18:27;;;;;;;0.70;0.50;;;16.30;99.90;;;;;;5012950;28;20454;-75
2021/09/08 04:20:53;;;;;;;1.43;1.33;;;16.30;99.90;;;;;;5014407;28;20673;-74
2021/09/08 04:23:18;;;;;;;1.53;1.33;;;16.30;99.90;;;;;;5013120;28;20555;-75
2021/09/08 04:25:44;;;;;;;2.87;2.50;;;16.20;99.90;;;;;;5014050;28;20166;-74
2021/09/08 04:28:09;;;;;;;1.03;0.97;;;16.20;99.90;;;;;;5013000;28;20584;-75
2021/09/08 04:30:35;;;;;;;3.03;1.53;;;16.20;99.90;;;;;;5013852;28;20255;-74
2021/09/08 04:33:00;;;;;;;1.10;1.00;;;16.20;99.90;;;;;;5012536;28;20172;-75
2021/09/08 04:35:26;;;;;;;4.07;1.00;;;16.20;99.90;;;;;;5013530;28;20706;-75
2021/09/08 04:37:51;;;;;;;3.23;2.97;;;16.10;99.90;;;;;;5013701;28;20200;-75
2021/09/08 04:40:17;;;;;;;1.30;1.10;;;16.10;99.90;;;;;;5012460;28;20270;-75
2021/09/08 04:42:43;;;;;;;5.03;2.50;;;16.10;99.90;;;;;;5013567;28;20173;-74
2021/09/08 04:45:09;;;;;;;2.60;2.40;;;16.10;99.90;;;;;;5013415;28;20167;-75
2021/09/08 04:47:35;;;;;;;0.90;0.83;;;16.20;99.90;;;;;;5013437;28;20172;-75
2021/09/08 04:50:00;;;;;;;0.90;0.70;;;16.20;99.90;;;;;;5013389;28;20458;-74
2021/09/08 04:52:26;;;;;;;3.37;1.40;;;16.20;99.90;;;;;;5012076;28;20914;-75
2021/09/08 04:54:51;;;;;;;1.57;1.30;;;16.10;99.90;;;;;;5013278;28;20180;-74
2021/09/08 04:57:17;;;;;;;1.00;0.90;;;16.10;99.90;;;;;;5013374;28;20230;-74
2021/09/08 04:59:43;;;;;;;4.60;1.40;;;16.10;99.90;;;;;;5013308;28;20282;-75
2021/09/08 05:02:09;;;;;;;1.67;1.57;;;16.10;99.90;;;;;;5012157;28;20176;-75
2021/09/08 05:04:34;;;;;;;1.70;1.10;;;16.10;99.90;;;;;;5013385;28;20418;-75
2021/09/08 05:07:00;;;;;;;1.10;1.00;;;16.10;99.90;;;;;;5013016;28;20168;-74
2021/09/08 05:09:25;;;;;;;8.70;1.40;;;16.10;99.90;;;;;;5011631;28;20204;-75
2021/09/08 05:11:51;;;;;;;5.03;2.00;;;16.10;99.90;;;;;;5013067;28;20176;-75
2021/09/08 05:14:18;;;;;;;0.90;0.70;;;16.10;99.90;;;;;;5013227;28;20168;-74
2021/09/08 05:16:43;;;;;;;3.33;3.03;;;16.10;99.90;;;;;;5012730;28;20804;-74
2021/09/08 05:19:09;;;;;;;1.10;0.70;;;16.10;99.90;;;;;;5012873;28;20441;-75
2021/09/08 05:21:35;;;;;;;4.23;2.50;;;16.10;99.90;;;;;;5012973;28;20230;-74
2021/09/08 05:24:00;;;;;;;1.20;1.10;;;16.10;99.90;;;;;;5012837;28;20259;-74
2021/09/08 05:26:26;;;;;;;4.00;1.33;;;16.10;99.90;;;;;;5012567;28;20199;-74
2021/09/08 05:28:52;;;;;;;2.17;1.57;;;16.10;99.90;;;;;;5012710;28;20286;-75
2021/09/08 05:31:17;;;;;;;9.10;1.00;;;16.10;99.90;;;;;;5012798;28;20227;-75
2021/09/08 05:33:43;;;;;;;1.53;1.10;;;16.10;99.90;;;;;;5011520;28;20593;-75
2021/09/08 05:36:08;;;;;;;2.97;1.73;;;16.10;99.90;;;;;;5012644;28;20226;-74
2021/09/08 05:38:34;;;;;;;1.00;0.83;;;16.10;99.90;;;;;;5012613;28;20638;-75
2021/09/08 05:41:00;;;;;;;1.50;1.37;;;16.20;99.90;;;;;;5011488;28;20182;-74
2021/09/08 05:43:26;;;;;;;1.47;1.37;;;16.20;99.90;;;;;;5013354;28;21055;-74
2021/09/08 05:45:51;;;;;;;1.07;0.93;;;16.20;99.90;;;;;;5011215;28;20406;-74
2021/09/08 05:48:17;;;;;;;1.40;1.00;;;16.20;99.90;;;;;;5012934;28;20183;-74
2021/09/08 05:50:42;;;;;;;1.70;1.60;;;16.20;99.90;;;;;;5012774;28;20572;-75
2021/09/08 05:53:08;;;;;;;7.73;1.63;;;16.30;99.90;;;;;;5012949;28;20195;-75
2021/09/08 05:55:33;;;;;;;1.17;1.07;;;16.30;99.90;;;;;;5012418;28;20184;-74
2021/09/08 05:57:59;;;;;;;2.30;2.10;;;16.30;99.90;;;;;;5012813;28;20191;-74
2021/09/08 06:00:24;;;;;;;1.17;1.07;;;16.40;99.90;;;;;;5012892;28;20199;-74
2021/09/08 06:02:50;;;;;;;3.20;2.13;;;16.50;99.90;;;;;;5012906;28;20187;-75
2021/09/08 06:05:16;;;;;;;1.93;1.30;;;16.60;99.90;;;;;;5012767;28;20226;-75
2021/09/08 06:07:41;;;;;;;2.70;2.50;;;16.70;99.90;;;;;;5012949;28;20196;-75
2021/09/08 06:10:07;;;;;;;1.57;1.47;;;16.90;99.90;;;;;;5012072;28;20751;-75
2021/09/08 06:12:33;;;;;;;2.30;2.10;;;17.00;99.90;;;;;;5014033;28;20251;-75
2021/09/08 06:14:59;;;;;;;1.30;1.17;;;17.10;99.90;;;;;;5012232;28;20450;-75
2021/09/08 06:17:24;;;;;;;0.83;0.67;;;17.30;99.90;;;;;;5011689;28;20183;-75
2021/09/08 06:19:50;;;;;;;2.30;2.00;;;17.60;99.90;;;;;;5015638;28;20202;-74
2021/09/08 06:22:16;;;;;;;2.70;2.13;;;18.10;99.90;;;;;;5014420;28;20204;-75
2021/09/08 06:24:42;;;;;;;2.60;1.50;;;18.40;99.90;;;;;;5015660;28;20465;-75
2021/09/08 06:27:07;;;;;;;1.93;1.67;;;18.70;99.90;;;;;;5016526;28;20187;-75
2021/09/08 06:29:33;;;;;;;1.00;0.77;;;19.10;99.90;;;;;;5016240;28;20199;-74
2021/09/08 06:31:58;;;;;;;1.13;1.03;;;19.30;99.90;;;;;;5015505;28;20251;-74
2021/09/08 06:34:24;;;;;;;2.67;1.50;;;19.60;99.90;;;;;;5015546;28;20224;-75
2021/09/08 06:36:50;;;;;;;1.30;1.03;;;20.00;99.90;;;;;;5015117;28;20713;-76
2021/09/08 06:39:15;;;;;;;4.90;3.27;;;20.30;99.90;;;;;;5015370;28;20215;-73
2021/09/08 06:41:41;;;;;;;1.00;0.87;;;20.70;99.90;;;;;;5015254;28;20180;-74
2021/09/08 06:44:06;;;;;;;1.50;1.33;;;20.90;99.90;;;;;;5015272;28;20214;-74
2021/09/08 06:46:32;;;;;;;1.80;1.70;;;21.00;99.90;;;;;;5015004;28;20165;-74
2021/09/08 06:48:58;;;;;;;2.63;2.43;;;20.80;99.90;;;;;;5013818;28;20204;-73
2021/09/08 06:51:23;;;;;;;4.43;3.17;;;20.50;99.90;;;;;;5015103;28;20298;-75
2021/09/08 06:53:48;;;;;;;3.63;2.33;;;20.30;99.90;;;;;;5015199;28;20514;-75
2021/09/08 06:56:14;;;;;;;2.37;2.17;;;20.10;99.90;;;;;;5015200;28;20214;-75
2021/09/08 06:58:40;;;;;;;2.93;1.90;;;19.90;99.90;;;;;;5016650;28;20243;-75
2021/09/08 07:01:05;;;;;;;1.47;1.30;;;19.80;99.90;;;;;;5015840;28;20176;-73
2021/09/08 07:03:30;;;;;;;1.93;1.23;;;19.60;99.90;;;;;;5014922;28;20219;-74
2021/09/08 07:05:56;;;;;;;2.40;1.13;;;19.60;99.90;;;;;;5014513;28;20218;-74
2021/09/08 07:08:22;;;;;;;4.43;1.77;;;19.50;99.90;;;;;;5013520;28;20611;-74
2021/09/08 07:10:48;;;;;;;1.33;1.23;;;19.40;99.90;;;;;;5013409;28;20208;-73
2021/09/08 07:13:14;;;;;;;1.97;1.73;;;19.30;99.90;;;;;;5014657;28;20214;-73
2021/09/08 07:15:39;;;;;;;3.07;1.87;;;19.20;99.90;;;;;;5014539;28;20403;-74
2021/09/08 07:18:05;;;;;;;2.23;1.87;;;19.20;99.90;;;;;;5013591;28;20520;-76
2021/09/08 07:20:30;;;;;;;9.23;3.57;;;19.10;99.90;;;;;;5014535;28;20231;-74
2021/09/08 07:22:56;;;;;;;4.33;2.30;;;19.20;99.90;;;;;;5014587;28;20857;-75
2021/09/08 07:25:22;;;;;;;3.40;1.83;;;19.40;99.90;;;;;;5013023;28;20657;-74
2021/09/08 07:27:48;;;;;;;2.07;1.73;;;19.80;99.90;;;;;;5014382;28;20255;-74
2021/09/08 07:30:13;;;;;;;0.90;0.70;;;20.00;99.90;;;;;;5014197;28;20550;-73
2021/09/08 07:32:39;;;;;;;1.10;1.00;;;20.30;99.90;;;;;;5015266;28;20164;-75
2021/09/08 07:35:05;;;;;;;2.17;1.97;;;20.60;99.90;;;;;;5014945;28;20168;-74
2021/09/08 07:37:31;;;;;;;2.07;1.77;;;20.70;99.90;;;;;;5014038;28;20165;-76
2021/09/08 07:39:57;;;;;;;1.80;1.23;;;20.70;99.90;;;;;;5014348;28;21075;-75
2021/09/08 07:42:23;;;;;;;1.70;1.27;;;21.00;99.90;;;;;;5014134;28;20172;-75
2021/09/08 07:44:49;;;;;;;1.33;1.23;;;21.00;99.90;;;;;;5014020;28;20168;-75
2021/09/08 07:47:14;;;;;;;1.20;0.83;;;21.10;99.90;;;;;;5013906;28;20415;-75
2021/09/08 07:49:40;;;;;;;2.90;2.00;;;21.20;99.90;;;;;;5013971;28;20203;-75
2021/09/08 07:52:06;;;;;;;2.43;1.30;;;21.30;99.90;;;;;;5014777;28;20172;-75
2021/09/08 07:54:31;;;;;;;2.20;1.50;;;21.40;99.90;;;;;;5014662;28;20188;-75
2021/09/08 07:56:57;;;;;;;1.90;1.77;;;21.50;99.90;;;;;;5014912;28;20558;-75
2021/09/08 07:59:22;;;;;;;1.67;1.57;;;21.50;99.90;;;;;;5014239;28;20215;-75
2021/09/08 08:01:48;;;;;;;2.53;2.43;;;21.40;99.90;;;;;;5013958;28;20211;-74
2021/09/08 08:04:14;;;;;;;2.30;1.37;;;21.50;99.90;;;;;;5013727;28;20645;-74
2021/09/08 08:06:39;;;;;;;3.40;1.10;;;21.60;99.90;;;;;;5013538;28;20164;-75
2021/09/08 08:09:06;;;;;;;1.73;1.30;;;21.80;99.90;;;;;;5013652;28;20199;-75
2021/09/08 08:11:32;;;;;;;1.87;1.67;;;21.90;99.90;;;;;;5013764;28;20156;-76
2021/09/08 08:13:57;;;;;;;2.23;1.10;;;22.30;99.90;;;;;;5013613;28;20406;-75
2021/09/08 08:16:23;;;;;;;2.97;1.27;;;22.60;99.90;;;;;;5012016;28;20533;-75
2021/09/08 08:18:48;;;;;;;4.13;1.37;;;22.90;99.90;;;;;;5014065;28;20540;-76
2021/09/08 08:21:14;;;;;;;2.73;2.53;;;23.20;99.90;;;;;;5013899;28;20161;-74
2021/09/08 08:23:39;;;;;;;2.80;2.60;;;23.40;99.90;;;;;;5013399;28;20172;-75
2021/09/08 08:26:05;;;;;;;7.10;1.80;;;23.40;99.90;;;;;;5013114;28;20161;-75
2021/09/08 08:28:31;;;;;;;2.07;1.60;;;23.60;99.90;;;;;;5013342;28;20160;-76
2021/09/08 08:30:59;;;;;;;2.80;1.57;;;23.90;99.90;;;;;;5013322;28;20200;-76
2021/09/08 08:33:28;;;;;;;2.10;1.90;;;24.20;99.90;;;;;;5013280;28;20427;-76
2021/09/08 08:35:54;;;;;;;2.90;2.60;;;24.60;99.90;;;;;;5012958;28;20399;-76
2021/09/08 08:38:20;;;;;;;1.40;1.30;;;25.20;99.90;;;;;;5011949;28;20791;-77
2021/09/08 08:40:45;;;;;;;3.13;2.93;;;25.80;99.90;;;;;;5012885;28;20506;-76
2021/09/08 08:43:11;;;;;;;2.77;2.60;;;26.20;99.90;;;;;;5013266;28;20172;-76
2021/09/08 08:45:36;;;;;;;4.23;2.30;;;26.60;99.90;;;;;;5012852;28;20540;-76
2021/09/08 08:48:03;;;;;;;4.97;3.17;;;26.90;99.90;;;;;;5013108;28;20180;-76
2021/09/08 08:50:29;;;;;;;2.93;2.73;;;27.30;99.90;;;;;;5012379;28;20212;-76
2021/09/08 08:52:57;;;;;;;2.07;1.50;;;27.80;99.90;;;;;;5013988;28;20920;-75
2021/09/08 08:55:24;;;;;;;2.53;2.03;;;27.90;99.90;;;;;;5012405;28;20434;-75
2021/09/08 08:57:50;;;;;;;4.00;1.97;;;28.20;99.90;;;;;;5011524;28;20776;-75
2021/09/08 09:00:18;;;;;;;8.10;7.33;;;28.40;99.90;;;;;;5012642;28;20427;-75
2021/09/08 09:02:48;;;;;;;3.07;2.53;;;28.70;99.90;;;;;;5012717;28;20176;-75
2021/09/08 09:05:33;;;;;;;1.80;1.70;;;28.70;99.90;;;;;;5011103;28;20415;-75
2021/09/08 09:07:59;;;;;;;2.30;2.00;;;29.00;99.90;;;;;;5011408;28;20780;-75
2021/09/08 09:10:25;;;;;;;2.60;1.73;;;29.30;99.90;;;;;;5012483;28;20454;-75
2021/09/08 09:12:50;;;;;;;3.23;1.83;;;29.80;99.90;;;;;;5011360;28;21008;-75
2021/09/08 09:15:19;;;;;;;3.43;2.37;;;30.30;99.90;;;;;;5012266;28;20255;-75
2021/09/08 09:17:46;;;;;;;3.33;3.10;;;30.50;99.90;;;;;;5012475;28;20164;-75
2021/09/08 09:20:17;;;;;;;2.70;1.90;;;30.80;99.90;;;;;;5012375;28;20431;-75
2021/09/08 09:22:46;;;;;;;1.60;1.43;;;31.50;99.90;;;;;;5012704;28;20416;-76
2021/09/08 09:25:14;;;;;;;2.00;1.90;;;31.40;96.50;;;;;;5012156;28;20497;-76
2021/09/08 09:27:47;;;;;;;2.40;1.53;;;31.60;95.30;;;;;;5012459;28;20909;-76
2021/09/08 09:30:20;;;;;;;3.17;2.50;;;31.80;96.50;;;;;;5012241;28;20459;-76
2021/09/08 09:32:49;;;;;;;1.77;1.67;;;32.20;95.40;;;;;;5012464;28;20403;-76
2021/09/08 09:35:22;;;;;;;2.70;1.53;;;32.30;93.70;;;;;;5010637;28;20419;-74
2021/09/08 09:37:51;;;;;;;2.97;2.17;;;32.40;90.90;;;;;;5012297;28;20400;-75
2021/09/08 09:40:22;;;;;;;2.27;2.03;;;32.40;88.40;;;;;;5012140;28;20991;-75
2021/09/08 09:42:47;;;;;;;5.20;3.63;;;32.60;91.10;;;;;;5012060;28;20497;-75
2021/09/08 09:45:14;;;;;;;1.90;1.80;;;32.80;87.60;;;;;;5011954;28;20450;-75
2021/09/08 09:47:42;;;;;;;1.93;1.53;;;33.20;86.50;;;;;;5012092;28;20251;-75
2021/09/08 09:50:12;;;;;;;1.40;1.30;;;33.00;83.60;;;;;;5011796;28;20789;-75
2021/09/08 09:52:38;;;;;;;7.30;3.20;;;33.30;85.50;;;;;;5012197;28;20403;-75
2021/09/08 09:55:05;;;;;;;3.63;2.17;;;33.60;81.90;;;;;;5015651;28;20518;-76
2021/09/08 09:57:31;;;;;;;2.70;2.50;;;33.70;84.00;;;;;;5016173;28;20199;-75
2021/09/08 09:59:58;;;;;;;2.90;1.90;;;33.90;83.30;;;;;;5015323;28;20948;-77
2021/09/08 10:02:25;;;;;;;2.10;1.33;;;34.00;77.70;;;;;;5015959;28;20419;-77
2021/09/08 10:04:50;;;;;;;2.70;2.50;;;34.20;80.90;;;;;;5016818;28;20411;-78
2021/09/08 10:07:23;;;;;;;2.20;1.97;;;34.30;76.70;;;;;;5017074;28;20411;-77
2021/09/08 10:09:53;;;;;;;3.20;1.97;;;34.60;75.20;;;;;;5014703;28;20204;-76
2021/09/08 10:12:22;;;;;;;2.40;2.13;;;34.90;72.10;;;;;;5015996;28;20406;-76
2021/09/08 10:14:49;;;;;;;2.57;2.23;;;34.90;71.60;;;;;;5014184;28;20514;-76
2021/09/08 10:17:19;;;;;;;2.40;2.07;;;34.90;70.40;;;;;;5015907;28;20411;-76
2021/09/08 10:19:45;;;;;;;4.17;1.83;;;35.10;74.90;;;;;;5015831;28;20430;-77
2021/09/08 10:22:13;;;;;;;3.30;2.10;;;34.90;65.90;;;;;;5015609;28;20408;-76
2021/09/08 10:24:46;;;;;;;3.37;2.43;;;34.90;69.70;;;;;;5016321;28;20490;-76
2021/09/08 10:27:23;;;;;;;1.50;1.40;;;34.90;69.30;;;;;;5014904;28;20785;-77
2021/09/08 10:29:51;;;;;;;2.67;2.47;;;34.70;69.10;;;;;;5015084;28;20470;-76
2021/09/08 10:32:19;;;;;;;2.10;1.80;;;35.10;71.60;;;;;;5015468;28;20549;-77
2021/09/08 10:34:46;;;;;;;4.23;2.53;;;35.60;72.70;;;;;;5015834;28;20439;-75
2021/09/08 10:37:12;;;;;;;4.63;4.27;;;36.00;70.70;;;;;;5015322;28;20489;-75
2021/09/08 10:39:41;;;;;;;2.27;2.00;;;35.80;64.80;;;;;;5016114;28;20935;-77
2021/09/08 10:42:06;;;;;;;2.60;1.97;;;35.60;62.90;;;;;;5014795;28;20423;-77
2021/09/08 10:44:45;;;;;;;2.50;2.30;;;35.50;63.40;;;;;;5015272;28;20403;-75
2021/09/08 10:47:11;;;;;;;2.77;2.57;;;34.90;63.10;;;;;;5016005;28;20173;-75
2021/09/08 10:49:37;;;;;;;3.73;2.90;;;35.30;65.90;;;;;;5014994;28;20450;-75
2021/09/08 10:52:04;;;;;;;3.07;1.80;;;35.30;62.00;;;;;;5014670;28;20410;-76
2021/09/08 10:54:30;;;;;;;2.03;1.73;;;35.60;64.60;;;;;;5013609;28;20191;-75
2021/09/08 10:56:55;;;;;;;2.50;1.83;;;35.80;63.10;;;;;;5014919;28;20411;-76
2021/09/08 10:59:21;;;;;;;2.30;2.10;;;35.90;59.50;;;;;;5013919;28;20199;-77
2021/09/08 11:01:51;;;;;;;2.17;1.67;;;36.00;61.20;;;;;;5015823;28;20176;-78
2021/09/08 11:04:17;;;;;;;5.50;3.10;;;35.60;58.90;;;;;;5013936;28;20306;-75
2021/09/08 11:06:45;;;;;;;3.20;3.00;;;35.30;59.40;;;;;;5014542;28;20545;-75
2021/09/08 11:09:13;;;;;;;2.57;2.00;;;35.20;60.50;;;;;;5015236;28;20196;-77
2021/09/08 11:11:48;;;;;;;3.20;1.50;;;34.90;59.60;;;;;;5015406;28;20419;-76
2021/09/08 11:14:15;;;;;;;3.20;2.23;;;34.80;63.90;;;;;;5014962;28;20461;-76
2021/09/08 11:16:41;;;;;;;2.60;2.30;;;34.70;63.00;;;;;;5013821;28;20485;-77
2021/09/08 11:19:11;;;;;;;2.17;2.07;;;34.90;64.50;;;;;;5014684;28;20439;-75
2021/09/08 11:21:37;;;;;;;2.10;1.87;;;35.20;61.80;;;;;;5014670;28;20164;-76
2021/09/08 11:24:08;;;;;;;2.47;2.27;;;35.40;60.90;;;;;;5014619;28;20414;-76
2021/09/08 11:26:36;;;;;;;2.23;1.50;;;35.40;60.40;;;;;;5014272;28;20753;-76
2021/09/08 11:29:08;;;;;;;2.30;1.90;;;35.00;59.70;;;;;;5014847;28;20423;-77
2021/09/08 11:31:35;;;;;;;2.83;2.63;;;34.70;61.40;;;;;;5015619;28;20473;-77
2021/09/08 11:34:01;;;;;;;1.30;1.20;;;34.40;59.00;;;;;;5015681;28;20941;-77
2021/09/08 11:36:28;;;;;;;2.10;2.00;;;33.90;59.80;;;;;;5015200;28;20460;-77
2021/09/08 11:38:57;;;;;;;3.23;3.03;;;33.90;58.80;;;;;;5015136;28;20423;-77
2021/09/08 11:41:25;;;;;;;1.87;1.60;;;33.90;62.60;;;;;;5015650;28;20399;-77
2021/09/08 11:43:52;;;;;;;1.77;1.67;;;34.40;64.20;;;;;;5015271;28;20558;-77
2021/09/08 11:46:27;;;;;;;2.60;1.97;;;34.60;61.10;;;;;;5015303;28;20399;-77
2021/09/08 11:48:55;;;;;;;3.23;2.03;;;34.70;61.60;;;;;;5014873;28;20418;-76
2021/09/08 11:51:24;;;;;;;3.13;2.03;;;35.10;59.40;;;;;;5012824;28;20940;-75
2021/09/08 11:53:51;;;;;;;1.90;1.57;;;35.00;58.10;;;;;;5013650;28;20403;-75
2021/09/08 11:56:19;;;;;;;2.53;1.90;;;35.40;61.40;;;;;;5013276;28;20419;-75
2021/09/08 11:58:52;;;;;;;1.53;1.43;;;35.10;56.80;;;;;;5014503;28;20399;-76
2021/09/08 12:01:19;;;;;;;2.30;1.70;;;34.40;55.80;;;;;;5014918;28;20418;-77
2021/09/08 12:03:47;;;;;;;2.50;1.40;;;34.00;57.00;;;;;;5013928;28;20422;-75
2021/09/08 12:06:23;;;;;;;1.47;1.37;;;33.80;58.80;;;;;;5012239;28;20441;-76
2021/09/08 12:08:52;;;;;;;1.93;1.70;;;34.00;58.80;;;;;;5013602;28;20465;-75
2021/09/08 12:11:45;;;;;;;2.03;1.93;;;34.10;59.40;;;;;;5014139;28;20407;-75
2021/09/08 12:14:15;;;;;;;1.50;1.40;;;34.60;58.60;;;;;;5013670;28;20388;-75
2021/09/08 12:16:40;;;;;;;1.80;1.70;;;34.50;56.50;;;;;;5012532;28;20403;-75
2021/09/08 12:19:10;;;;;;;2.43;1.73;;;34.20;58.60;;;;;;5013494;28;20430;-75
2021/09/08 12:21:36;;;;;;;5.10;1.93;;;34.00;58.00;;;;;;5013415;28;20164;-75
2021/09/08 12:24:23;;;;;;;2.27;2.17;;;33.80;59.00;;;;;;5013444;28;20473;-75
2021/09/08 12:26:49;;;;;;;2.27;2.07;;;33.90;59.70;;;;;;5013514;28;20247;-75
2021/09/08 12:29:15;;;;;;;2.47;2.27;;;34.10;59.80;;;;;;5013253;28;20807;-75
2021/09/08 12:31:52;;;;;;;2.07;1.97;;;34.40;59.00;;;;;;5013327;28;20399;-75
2021/09/08 12:34:19;;;;;;;2.20;2.10;;;34.50;59.30;;;;;;5013537;28;20641;-75
2021/09/08 12:36:46;;;;;;;1.93;1.73;;;34.90;60.60;;;;;;5012958;28;20406;-75
2021/09/08 12:39:19;;;;;;;3.63;2.10;;;35.10;58.60;;;;;;5012018;28;20437;-75
2021/09/08 12:41:59;;;;;;;3.03;2.03;;;35.00;59.20;;;;;;5013124;28;20410;-75
2021/09/08 12:44:33;;;;;;;4.20;2.73;;;35.10;58.30;;;;;;5012996;28;20465;-75